createdAt,value
2019-05-17T00:00:57.153Z,17.73
2019-05-17T00:03:27.021Z,20.08
2019-05-17T00:05:58.135Z,19.70
2019-05-17T00:08:34.404Z,21.00
2019-05-17T00:11:01.076Z,22.10
2019-05-17T00:13:31.846Z,19.42
2019-05-17T00:16:02.791Z,20.48
2019-05-17T00:18:33.644Z,25.15
2019-05-17T00:21:04.502Z,23.25
2019-05-17T00:23:37.452Z,20.48
2019-05-17T00:26:07.549Z,20.88
2019-05-17T00:28:38.613Z,22.13
2019-05-17T00:31:09.588Z,21.42
2019-05-17T00:33:40.548Z,26.77
2019-05-17T00:36:11.505Z,24.00
2019-05-17T00:38:48.310Z,22.52
2019-05-17T00:41:17.478Z,20.90
2019-05-17T00:43:47.345Z,26.55
2019-05-17T00:46:18.406Z,28.30
2019-05-17T00:48:49.365Z,25.92
2019-05-17T00:51:20.219Z,22.77
2019-05-17T00:53:51.280Z,22.50
2019-05-17T00:56:22.241Z,26.57
2019-05-17T00:58:53.299Z,25.30
2019-05-17T01:01:26.902Z,23.80
2019-05-17T01:03:57.230Z,24.45
2019-05-17T01:06:28.323Z,25.00
2019-05-17T01:09:01.893Z,25.37
2019-05-17T01:11:33.104Z,26.52
2019-05-17T01:14:06.823Z,26.23
2019-05-17T01:16:37.357Z,24.50
2019-05-17T01:19:08.435Z,26.82
2019-05-17T01:21:39.392Z,23.85
2019-05-17T01:24:10.230Z,25.30
2019-05-17T01:26:41.190Z,25.95
2019-05-17T01:29:12.146Z,24.10
2019-05-17T01:31:43.207Z,26.37
2019-05-17T01:34:16.472Z,28.92
2019-05-17T01:36:46.630Z,25.48
2019-05-17T01:39:21.335Z,30.43
2019-05-17T01:41:50.314Z,28.12
2019-05-17T01:44:21.493Z,25.85
2019-05-17T01:46:52.452Z,28.23
2019-05-17T01:49:23.514Z,24.92
2019-05-17T01:51:56.662Z,25.85
2019-05-17T01:54:27.005Z,29.40
2019-05-17T01:56:57.921Z,25.50
2019-05-17T01:59:28.760Z,28.27
2019-05-17T02:02:01.372Z,28.38
2019-05-17T02:04:32.333Z,27.10
2019-05-17T02:07:03.273Z,24.47
2019-05-17T02:09:38.603Z,27.70
2019-05-17T02:12:07.457Z,26.60
2019-05-17T02:14:38.499Z,21.45
2019-05-17T02:17:09.459Z,26.90
2019-05-17T02:19:40.438Z,25.02
2019-05-17T02:22:11.290Z,28.12
2019-05-17T02:24:42.358Z,23.42
2019-05-17T02:27:13.495Z,28.50
2019-05-17T02:29:44.557Z,27.32
2019-05-17T02:32:15.740Z,22.93
2019-05-17T02:34:46.799Z,29.92
2019-05-17T02:37:17.636Z,26.55
2019-05-17T02:39:58.296Z,24.63
2019-05-17T02:42:22.436Z,25.77
2019-05-17T02:44:53.294Z,19.90
2019-05-17T02:47:24.130Z,21.85
2019-05-17T02:49:55.189Z,21.20
2019-05-17T02:52:26.169Z,20.82
2019-05-17T02:54:57.230Z,24.10
2019-05-17T02:57:28.200Z,18.67
2019-05-17T02:59:59.231Z,22.93
2019-05-17T03:02:33.835Z,26.62
2019-05-17T03:05:04.102Z,24.47
2019-05-17T03:07:35.088Z,19.57
2019-05-17T03:10:18.113Z,22.22
2019-05-17T03:12:39.562Z,16.10
2019-05-17T03:15:12.844Z,18.98
2019-05-17T03:17:43.975Z,21.48
2019-05-17T03:20:15.393Z,15.88
2019-05-17T03:22:45.934Z,18.87
2019-05-17T03:25:17.014Z,18.77
2019-05-17T03:27:47.876Z,15.78
2019-05-17T03:30:25.343Z,18.57
2019-05-17T03:32:56.239Z,18.12
2019-05-17T03:35:26.901Z,21.80
2019-05-17T03:37:57.410Z,17.42
2019-05-17T03:40:56.542Z,18.00
2019-05-17T03:43:02.862Z,20.72
2019-05-17T03:45:34.145Z,20.72
2019-05-17T03:48:05.363Z,18.85
2019-05-17T03:50:36.198Z,22.32
2019-05-17T03:53:06.859Z,17.87
2019-05-17T03:55:37.923Z,19.25
2019-05-17T03:58:08.880Z,21.82
2019-05-17T04:00:42.583Z,18.80
2019-05-17T04:03:13.598Z,22.93
2019-05-17T04:05:44.617Z,20.00
2019-05-17T04:08:15.482Z,21.25
2019-05-17T04:10:46.533Z,23.22
2019-05-17T04:13:17.493Z,21.45
2019-05-17T04:15:48.554Z,20.12
2019-05-17T04:18:19.391Z,19.65
2019-05-17T04:20:52.847Z,20.82
2019-05-17T04:23:23.431Z,25.17
2019-05-17T04:25:54.318Z,20.72
2019-05-17T04:28:25.187Z,19.48
2019-05-17T04:30:56.052Z,20.35
2019-05-17T04:33:26.984Z,21.07
2019-05-17T04:35:57.960Z,17.73
2019-05-17T04:38:28.695Z,18.62
2019-05-17T04:41:02.847Z,19.27
2019-05-17T04:43:33.321Z,20.68
2019-05-17T04:46:04.334Z,20.12
2019-05-17T04:48:35.419Z,17.42
2019-05-17T04:51:06.370Z,19.87
2019-05-17T04:53:37.116Z,18.42
2019-05-17T04:56:08.185Z,16.52
2019-05-17T04:58:39.147Z,20.50
2019-05-17T05:01:12.972Z,17.80
2019-05-17T05:03:42.989Z,17.60
2019-05-17T05:06:14.066Z,18.90
2019-05-17T05:08:45.489Z,17.17
2019-05-17T05:11:16.391Z,17.50
2019-05-17T05:13:47.346Z,20.92
2019-05-17T05:16:18.391Z,17.60
2019-05-17T05:18:51.911Z,15.90
2019-05-17T05:21:22.995Z,16.97
2019-05-17T05:23:54.044Z,21.90
2019-05-17T05:26:24.983Z,17.52
2019-05-17T05:28:55.876Z,18.80
2019-05-17T05:31:26.928Z,20.27
2019-05-17T05:33:57.979Z,17.98
2019-05-17T05:36:32.797Z,19.77
2019-05-17T05:39:05.113Z,16.80
2019-05-17T05:41:36.173Z,19.07
2019-05-17T05:44:07.031Z,19.92
2019-05-17T05:46:38.065Z,21.17
2019-05-17T05:49:09.216Z,21.42
2019-05-17T05:51:42.289Z,17.05
2019-05-17T05:54:12.567Z,17.90
2019-05-17T05:56:43.563Z,18.42
2019-05-17T05:59:14.620Z,17.73
2019-05-17T06:01:45.585Z,18.32
2019-05-17T06:04:16.717Z,16.25
2019-05-17T06:06:47.393Z,15.72
2019-05-17T06:09:18.364Z,16.02
2019-05-17T06:11:51.819Z,17.23
2019-05-17T06:14:22.706Z,18.07
2019-05-17T06:16:53.973Z,21.60
2019-05-17T06:19:25.054Z,16.27
2019-05-17T06:21:56.120Z,16.55
2019-05-17T06:24:27.070Z,17.52
2019-05-17T06:26:57.701Z,18.55
2019-05-17T06:29:28.558Z,18.50
2019-05-17T06:31:59.431Z,17.48
2019-05-17T06:34:32.704Z,18.67
2019-05-17T06:37:02.869Z,16.82
2019-05-17T06:39:33.826Z,15.68
2019-05-17T06:42:04.809Z,16.30
2019-05-17T06:44:35.639Z,15.78
2019-05-17T06:47:06.700Z,17.85
2019-05-17T06:49:37.553Z,14.55
2019-05-17T06:52:08.428Z,15.08
2019-05-17T06:54:41.581Z,18.32
2019-05-17T06:57:12.894Z,13.48
2019-05-17T06:59:43.848Z,15.00
2019-05-17T07:02:14.921Z,20.20
2019-05-17T07:04:45.758Z,14.23
2019-05-17T07:07:24.085Z,15.70
2019-05-17T07:09:56.413Z,15.13
2019-05-17T07:12:30.474Z,17.07
2019-05-17T07:15:02.910Z,13.43
2019-05-17T07:17:34.073Z,13.78
2019-05-17T07:20:05.308Z,16.02
2019-05-17T07:22:35.985Z,13.22
2019-05-17T07:25:10.759Z,15.75
2019-05-17T07:27:45.440Z,13.45
2019-05-17T07:30:13.979Z,15.75
2019-05-17T07:32:44.524Z,14.05
2019-05-17T07:35:15.260Z,15.00
2019-05-17T07:37:46.345Z,15.85
2019-05-17T07:40:19.690Z,13.53
2019-05-17T07:42:50.213Z,16.00
2019-05-17T07:45:21.156Z,17.92
2019-05-17T07:47:52.218Z,13.62
2019-05-17T07:50:24.814Z,12.20
2019-05-17T07:52:55.652Z,15.68
2019-05-17T07:55:26.612Z,12.23
2019-05-17T07:58:10.039Z,15.03
2019-05-17T08:00:40.824Z,12.78
2019-05-17T08:03:13.314Z,12.78
2019-05-17T08:05:44.369Z,15.70
2019-05-17T08:08:15.023Z,13.53
2019-05-17T08:10:45.981Z,12.65
2019-05-17T08:13:27.269Z,16.75
2019-05-17T08:15:50.156Z,13.03
2019-05-17T08:18:21.311Z,16.87
2019-05-17T08:20:52.170Z,14.95
2019-05-17T08:23:23.106Z,12.73
2019-05-17T08:26:07.475Z,14.93
2019-05-17T08:28:50.582Z,13.15
2019-05-17T08:31:21.672Z,14.95
2019-05-17T08:33:52.630Z,12.43
2019-05-17T08:36:23.492Z,19.10
2019-05-17T08:38:54.547Z,13.05
2019-05-17T08:41:25.405Z,12.35
2019-05-17T08:43:56.554Z,13.32
2019-05-17T08:46:35.338Z,15.95
2019-05-17T08:49:09.601Z,13.93
2019-05-17T08:51:39.910Z,13.58
2019-05-17T08:54:11.735Z,13.68
2019-05-17T08:56:55.826Z,11.50
2019-05-17T08:59:29.695Z,11.43
2019-05-17T09:02:00.569Z,13.83
2019-05-17T09:04:31.422Z,12.40
2019-05-17T09:07:03.221Z,13.18
2019-05-17T09:09:34.059Z,12.88
2019-05-17T09:12:06.365Z,17.57
2019-05-17T09:17:30.776Z,10.85
2019-05-17T09:20:02.503Z,13.50
2019-05-17T09:22:39.392Z,12.78
2019-05-17T09:25:17.106Z,10.35
2019-05-17T09:27:45.962Z,10.08
2019-05-17T09:30:25.455Z,10.15
2019-05-17T09:33:00.342Z,15.75
2019-05-17T09:35:30.835Z,15.05
2019-05-17T09:38:09.816Z,13.62
2019-05-17T09:40:40.270Z,12.70
2019-05-17T09:43:11.148Z,9.83
2019-05-17T09:45:50.816Z,8.08
2019-05-17T09:48:39.640Z,10.78
2019-05-17T09:51:10.661Z,12.28
2019-05-17T09:53:41.695Z,9.98
2019-05-17T09:56:25.757Z,12.55
2019-05-17T09:59:05.855Z,10.50
2019-05-17T10:01:39.453Z,10.60
2019-05-17T10:04:16.092Z,10.13
2019-05-17T10:06:56.150Z,13.10
2019-05-17T10:09:27.721Z,12.33
2019-05-17T10:12:00.032Z,9.65
2019-05-17T10:14:31.342Z,9.70
2019-05-17T10:17:02.139Z,13.32
2019-05-17T10:19:36.464Z,9.90
2019-05-17T10:22:10.340Z,10.82
2019-05-17T10:24:42.427Z,9.18
2019-05-17T10:27:14.649Z,9.18
2019-05-17T10:29:45.721Z,10.55
2019-05-17T10:32:16.558Z,8.48
2019-05-17T10:34:49.520Z,10.13
2019-05-17T10:37:20.423Z,10.00
2019-05-17T10:39:51.378Z,11.83
2019-05-17T10:42:22.452Z,7.97
2019-05-17T10:44:54.764Z,9.10
2019-05-17T10:47:25.582Z,13.10
2019-05-17T10:49:56.342Z,8.93
2019-05-17T10:52:29.732Z,11.22
2019-05-17T10:54:59.808Z,9.38
2019-05-17T10:57:31.069Z,8.08
2019-05-17T11:00:01.914Z,11.53
2019-05-17T11:02:32.987Z,6.80
2019-05-17T11:05:04.766Z,10.98
2019-05-17T11:07:35.419Z,10.78
2019-05-17T11:10:11.236Z,9.88
2019-05-17T11:12:40.398Z,12.30
2019-05-17T11:15:12.268Z,11.08
2019-05-17T11:17:43.318Z,9.33
2019-05-17T11:20:14.740Z,9.43
2019-05-17T11:22:45.238Z,8.48
2019-05-17T11:25:16.299Z,7.08
2019-05-17T11:28:18.031Z,7.22
2019-05-17T11:30:59.177Z,13.13
2019-05-17T11:33:31.228Z,8.03
2019-05-17T11:36:02.333Z,8.15
2019-05-17T11:38:33.620Z,8.35
2019-05-17T11:41:21.190Z,9.18
2019-05-17T11:44:05.927Z,6.90
2019-05-17T11:46:36.852Z,13.40
2019-05-17T11:49:07.966Z,7.45
2019-05-17T11:51:39.244Z,8.28
2019-05-17T11:54:16.343Z,11.28
2019-05-17T11:56:47.490Z,7.22
2019-05-17T11:59:19.981Z,9.68
2019-05-17T12:01:56.905Z,9.78
2019-05-17T12:04:30.254Z,6.87
2019-05-17T12:07:00.839Z,8.85
2019-05-17T12:09:37.358Z,7.30
2019-05-17T12:12:03.964Z,9.45
2019-05-17T12:14:34.731Z,8.13
2019-05-17T12:17:05.679Z,8.80
2019-05-17T12:19:37.364Z,7.55
2019-05-17T12:22:08.427Z,6.60
2019-05-17T12:24:39.167Z,10.72
2019-05-17T12:27:10.244Z,10.10
2019-05-17T12:29:41.207Z,8.40
2019-05-17T12:32:16.847Z,11.20
2019-05-17T12:34:44.855Z,10.98
2019-05-17T12:37:15.915Z,8.70
2019-05-17T12:39:46.874Z,12.33
2019-05-17T12:42:17.712Z,7.33
2019-05-17T12:44:48.792Z,8.98
2019-05-17T12:47:19.770Z,10.03
2019-05-17T12:49:50.813Z,10.72
2019-05-17T12:52:21.658Z,10.90
2019-05-17T12:54:59.188Z,9.13
2019-05-17T12:57:29.702Z,9.40
2019-05-17T13:00:00.681Z,7.70
2019-05-17T13:02:31.599Z,9.40
2019-05-17T13:05:02.075Z,8.30
2019-05-17T13:07:32.619Z,11.25
2019-05-17T13:10:05.051Z,11.45
2019-05-17T13:12:35.674Z,7.75
2019-05-17T13:15:07.637Z,8.08
2019-05-17T13:17:38.236Z,8.85
2019-05-17T13:20:09.970Z,14.38
2019-05-17T13:22:40.526Z,9.15
2019-05-17T13:25:12.291Z,8.13
2019-05-17T13:27:42.960Z,9.55
2019-05-17T13:30:14.207Z,8.88
2019-05-17T13:32:45.290Z,11.18
2019-05-17T13:35:17.277Z,10.88
2019-05-17T13:37:47.919Z,10.75
2019-05-17T13:40:18.777Z,10.35
2019-05-17T13:42:49.938Z,11.43
2019-05-17T13:45:21.009Z,11.48
2019-05-17T13:47:51.956Z,11.08
2019-05-17T13:50:23.064Z,11.70
2019-05-17T13:52:54.064Z,8.75
2019-05-17T13:55:25.037Z,11.90
2019-05-17T13:57:55.897Z,8.98
2019-05-17T14:00:26.955Z,11.03
2019-05-17T14:02:57.911Z,16.35
2019-05-17T14:05:28.972Z,8.40
2019-05-17T14:07:59.931Z,10.85
2019-05-17T14:10:32.215Z,10.13
2019-05-17T14:13:03.072Z,8.48
2019-05-17T14:15:34.018Z,10.93
2019-05-17T14:18:04.994Z,14.07
2019-05-17T14:20:36.051Z,16.85
2019-05-17T14:23:06.890Z,8.80
2019-05-17T14:25:38.546Z,9.38
2019-05-17T14:28:11.416Z,10.65
2019-05-17T14:30:42.239Z,11.78
2019-05-17T14:33:13.077Z,9.00
2019-05-17T14:35:44.159Z,10.03
2019-05-17T14:38:15.219Z,9.25
2019-05-17T14:41:05.458Z,12.00
2019-05-17T14:43:19.282Z,12.58
2019-05-17T14:45:50.342Z,8.63
2019-05-17T14:48:21.307Z,13.05
2019-05-17T14:50:52.238Z,9.40
2019-05-17T14:53:23.094Z,10.10
2019-05-17T14:55:53.959Z,12.37
2019-05-17T14:58:24.910Z,8.70
2019-05-17T15:00:55.777Z,8.50
2019-05-17T15:03:26.623Z,13.50
2019-05-17T15:05:57.701Z,10.65
2019-05-17T15:08:28.763Z,9.45
2019-05-17T15:10:59.825Z,11.38
2019-05-17T15:13:30.785Z,11.93
2019-05-17T15:16:01.723Z,10.75
2019-05-17T15:18:32.809Z,11.45
2019-05-17T15:21:03.760Z,10.48
2019-05-17T15:23:34.819Z,9.98
2019-05-17T15:26:05.775Z,9.53
2019-05-17T15:28:36.822Z,10.10
2019-05-17T15:31:07.823Z,10.60
2019-05-17T15:33:38.755Z,10.20
2019-05-17T15:36:09.697Z,9.75
2019-05-17T15:38:40.655Z,17.05
2019-05-17T15:41:11.731Z,12.95
2019-05-17T15:43:42.676Z,9.23
2019-05-17T15:46:13.426Z,18.10
2019-05-17T15:48:44.506Z,11.15
2019-05-17T15:51:15.468Z,10.65
2019-05-17T15:53:46.406Z,8.50
2019-05-17T15:56:17.362Z,8.25
2019-05-17T15:58:48.238Z,8.08
2019-05-17T16:01:19.176Z,10.15
2019-05-17T16:03:50.151Z,9.00
2019-05-17T16:06:21.226Z,10.95
2019-05-17T16:08:52.153Z,8.40
2019-05-17T16:11:23.011Z,9.55
2019-05-17T16:13:54.070Z,9.90
2019-05-17T16:16:24.928Z,9.58
2019-05-17T16:18:56.013Z,11.30
2019-05-17T16:21:26.855Z,9.30
2019-05-17T16:23:57.719Z,9.40
2019-05-17T16:26:28.659Z,10.53
2019-05-17T16:28:59.634Z,10.98
2019-05-17T16:31:30.491Z,12.20
2019-05-17T16:34:01.550Z,14.18
2019-05-17T16:36:32.398Z,12.47
2019-05-17T16:39:08.219Z,14.53
2019-05-17T16:41:37.302Z,11.85
2019-05-17T16:44:08.333Z,9.05
2019-05-17T16:46:39.109Z,10.25
2019-05-17T16:49:10.045Z,11.15
2019-05-17T16:51:40.805Z,12.93
2019-05-17T16:54:11.876Z,9.73
2019-05-17T16:56:42.429Z,10.55
2019-05-17T16:59:13.385Z,11.00
2019-05-17T17:01:44.452Z,9.28
2019-05-17T17:04:15.389Z,9.75
2019-05-17T17:06:46.243Z,11.05
2019-05-17T17:09:17.434Z,9.63
2019-05-17T17:11:47.971Z,10.05
2019-05-17T17:14:18.931Z,11.10
2019-05-17T17:16:49.887Z,12.30
2019-05-17T17:19:20.543Z,12.75
2019-05-17T17:21:51.603Z,10.05
2019-05-17T17:24:22.765Z,11.18
2019-05-17T17:26:53.637Z,13.50
2019-05-17T17:29:24.889Z,10.90
2019-05-17T17:31:55.540Z,9.38
2019-05-17T17:34:26.192Z,10.93
2019-05-17T17:36:57.133Z,14.30
2019-05-17T17:39:28.112Z,21.68
2019-05-17T17:41:58.842Z,19.62
2019-05-17T17:44:29.906Z,19.15
2019-05-17T17:47:00.915Z,16.23
2019-05-17T17:49:32.147Z,10.95
2019-05-17T17:52:02.984Z,14.95
2019-05-17T17:54:34.044Z,9.28
2019-05-17T17:57:05.265Z,9.13
2019-05-17T17:59:36.493Z,12.43
2019-05-17T18:02:07.331Z,11.15
2019-05-17T18:04:38.215Z,13.10
2019-05-17T18:07:09.250Z,13.53
2019-05-17T18:09:40.438Z,23.75
2019-05-17T18:12:11.084Z,20.00
2019-05-17T18:14:42.017Z,13.05
2019-05-17T18:17:12.878Z,11.15
2019-05-17T18:19:43.954Z,9.20
2019-05-17T18:22:15.834Z,9.65
2019-05-17T18:24:46.894Z,11.18
2019-05-17T18:27:17.955Z,9.25
2019-05-17T18:29:48.996Z,9.68
2019-05-17T18:32:19.955Z,8.95
2019-05-17T18:34:51.035Z,11.05
2019-05-17T18:37:24.666Z,13.03
2019-05-17T18:39:55.690Z,8.98
2019-05-17T18:42:26.364Z,9.40
2019-05-17T18:44:57.422Z,9.78
2019-05-17T18:47:28.487Z,10.03
2019-05-17T18:49:59.547Z,10.20
2019-05-17T18:52:30.400Z,12.07
2019-05-17T18:55:01.462Z,8.78
2019-05-17T18:57:32.426Z,10.38
2019-05-17T19:00:03.566Z,11.20
2019-05-17T19:02:34.130Z,7.72
2019-05-17T19:05:07.498Z,11.68
2019-05-17T19:07:38.095Z,9.15
2019-05-17T19:10:09.300Z,9.90
2019-05-17T19:12:39.964Z,12.37
2019-05-17T19:15:11.580Z,14.28
2019-05-17T19:17:42.234Z,10.03
2019-05-17T19:20:14.216Z,11.12
2019-05-17T19:22:45.929Z,8.55
2019-05-17T19:25:17.774Z,12.28
2019-05-17T19:27:48.300Z,9.65
2019-05-17T19:30:19.483Z,9.30
2019-05-17T19:32:50.537Z,11.00
2019-05-17T19:35:21.603Z,10.10
2019-05-17T19:37:54.380Z,11.48
2019-05-17T19:40:25.047Z,10.72
2019-05-17T19:42:56.113Z,13.98
2019-05-17T19:45:27.072Z,9.75
2019-05-17T19:47:57.910Z,12.10
2019-05-17T19:50:28.995Z,11.40
2019-05-17T19:52:59.952Z,14.80
2019-05-17T19:55:33.339Z,10.68
2019-05-17T19:58:07.497Z,10.13
2019-05-17T20:00:38.435Z,8.95
2019-05-17T20:03:09.407Z,17.32
2019-05-17T20:05:40.468Z,11.00
2019-05-17T20:08:11.325Z,10.63
2019-05-17T20:10:42.679Z,9.88
2019-05-17T20:13:13.239Z,12.05
2019-05-17T20:15:44.076Z,7.97
2019-05-17T20:18:15.043Z,8.28
2019-05-17T20:20:45.993Z,10.05
2019-05-17T20:23:17.995Z,9.80
2019-05-17T20:25:49.137Z,9.70
2019-05-17T20:28:20.119Z,10.18
2019-05-17T20:30:51.175Z,12.05
2019-05-17T20:33:22.137Z,10.20
2019-05-17T20:35:52.980Z,11.10
2019-05-17T20:38:24.051Z,7.58
2019-05-17T20:40:54.996Z,9.90
2019-05-17T20:43:26.060Z,9.05
2019-05-17T20:45:57.029Z,12.82
2019-05-17T20:48:27.869Z,8.63
2019-05-17T20:50:58.944Z,11.08
2019-05-17T20:53:29.792Z,8.23
2019-05-17T20:56:00.777Z,9.90
2019-05-17T20:58:31.867Z,9.50
2019-05-17T21:01:02.780Z,10.72
2019-05-17T21:03:33.838Z,7.72
2019-05-17T21:06:05.090Z,11.18
2019-05-17T21:08:45.662Z,10.38
2019-05-17T21:11:08.458Z,8.55
2019-05-17T21:13:39.327Z,12.70
2019-05-17T21:16:10.066Z,8.35
2019-05-17T21:18:41.025Z,9.93
2019-05-17T21:21:11.863Z,10.43
2019-05-17T21:23:43.961Z,10.48
2019-05-17T21:26:15.007Z,11.15
2019-05-17T21:28:47.275Z,12.68
2019-05-17T21:31:18.273Z,8.45
2019-05-17T21:33:49.233Z,9.08
2019-05-17T21:36:20.081Z,11.43
2019-05-17T21:38:51.145Z,8.78
2019-05-17T21:41:22.108Z,9.93
2019-05-17T21:43:53.166Z,10.98
2019-05-17T21:46:24.124Z,9.75
2019-05-17T21:48:54.980Z,8.10
2019-05-17T21:51:26.037Z,7.97
2019-05-17T21:53:57.098Z,8.05
2019-05-17T21:56:28.157Z,9.68
2019-05-17T21:58:58.997Z,8.63
2019-05-17T22:01:32.838Z,10.43
2019-05-17T22:04:03.999Z,11.18
2019-05-17T22:06:34.635Z,8.38
2019-05-17T22:09:07.731Z,11.03
2019-05-17T22:11:40.235Z,10.63
2019-05-17T22:14:11.213Z,9.48
2019-05-17T22:16:42.252Z,8.55
2019-05-17T22:19:13.230Z,10.65
2019-05-17T22:21:44.066Z,7.87
2019-05-17T22:24:16.169Z,13.05
2019-05-17T22:26:47.386Z,10.35
2019-05-17T22:29:18.270Z,7.55
2019-05-17T22:31:49.352Z,15.00
2019-05-17T22:34:20.198Z,9.15
2019-05-17T22:36:51.040Z,9.13
2019-05-17T22:39:22.120Z,9.90
2019-05-17T22:41:53.063Z,7.87
2019-05-17T22:44:23.925Z,10.48
2019-05-17T22:46:55.001Z,7.65
2019-05-17T22:49:25.960Z,7.17
2019-05-17T22:51:56.924Z,6.80
2019-05-17T22:54:27.972Z,9.53
2019-05-17T22:56:58.917Z,9.83
2019-05-17T22:59:29.890Z,8.23
2019-05-17T23:02:00.953Z,6.53
2019-05-17T23:04:31.791Z,7.95
2019-05-17T23:07:02.648Z,8.25
2019-05-17T23:09:33.724Z,7.58
2019-05-17T23:12:04.685Z,9.05
2019-05-17T23:14:35.545Z,9.93
2019-05-17T23:17:06.603Z,8.28
2019-05-17T23:19:37.561Z,10.08
2019-05-17T23:22:08.617Z,7.85
2019-05-17T23:24:40.498Z,7.85
2019-05-17T23:27:11.765Z,7.85
2019-05-17T23:29:42.620Z,9.20
2019-05-17T23:32:13.683Z,11.35
2019-05-17T23:34:44.636Z,9.48
2019-05-17T23:37:15.699Z,7.70
2019-05-17T23:39:46.965Z,8.60
2019-05-17T23:42:18.008Z,6.97
2019-05-17T23:44:49.479Z,8.53
2019-05-17T23:47:20.554Z,7.28
2019-05-17T23:49:51.512Z,7.47
2019-05-17T23:52:22.417Z,6.75
2019-05-17T23:54:53.534Z,7.47
2019-05-17T23:57:24.472Z,7.55
2019-05-17T23:59:55.552Z,8.35
